Redfield, Iowa
Current Conditions -  °F | °C
As of 11:35 AM on Wednesday 26 Nov 2014 (Local Time) from KPRO Reporting Station
Light Snow Light Snow  
Wind Chill: 20°   Ceiling: 900
Heat Index: 30°   Visibility: 5mi
Dew Point: 28°   Wind: 12mph
Humidity: 94%   Direction: 20°NNE
Pressure: 29.99"   Gusts: NA
Location:  41.59°N, 94.2°W
Report Text: KPRO 261735Z AUTO 02010KT 5SM -SN OVC009 M01/M02 A2999 RMK AO2 T10131022
Loading
Personal Weather Stations






























Interactive Weather Map New forecast layout! Learn more

10-Day Weather Forecast

Advertisements
Track Severe Weather on mobile